createdAt,value
2022-08-12T00:00:01.304Z,18.58
2022-08-12T00:02:47.015Z,18.42
2022-08-12T00:05:34.266Z,17.70
2022-08-12T00:08:30.828Z,19.48
2022-08-12T00:11:22.928Z,17.52
2022-08-12T00:14:10.187Z,18.20
2022-08-12T00:16:56.845Z,18.52
2022-08-12T00:19:42.247Z,19.40
2022-08-12T00:22:29.204Z,17.90
2022-08-12T00:25:17.765Z,17.05
2022-08-12T00:28:05.128Z,18.05
2022-08-12T00:30:53.432Z,18.10
2022-08-12T00:33:51.871Z,19.20
2022-08-12T00:36:43.759Z,19.08
2022-08-12T00:39:31.358Z,17.60
2022-08-12T00:42:10.948Z,18.80
2022-08-12T00:44:40.657Z,17.02
2022-08-12T00:47:24.158Z,19.58
2022-08-12T00:49:54.375Z,18.08
2022-08-12T00:52:23.227Z,17.88
2022-08-12T00:54:53.361Z,18.52
2022-08-12T00:57:23.711Z,16.77
2022-08-12T00:59:53.730Z,19.40
2022-08-12T01:02:28.701Z,17.38
2022-08-12T01:05:17.396Z,19.05
2022-08-12T01:08:04.361Z,17.73
2022-08-12T01:10:52.532Z,16.10
2022-08-12T01:13:22.200Z,17.45
2022-08-12T01:15:52.755Z,19.25
2022-08-12T01:18:23.642Z,17.65
2022-08-12T01:21:04.422Z,18.80
2022-08-12T01:24:29.721Z,16.38
2022-08-12T01:26:56.884Z,18.35
2022-08-12T01:29:32.803Z,17.80
2022-08-12T01:32:06.577Z,19.10
2022-08-12T01:34:38.587Z,17.27
2022-08-12T01:37:09.697Z,17.58
2022-08-12T01:40:36.920Z,16.55
2022-08-12T01:42:36.345Z,14.82
2022-08-12T01:45:04.946Z,16.00
2022-08-12T01:47:49.882Z,17.17
2022-08-12T01:50:26.545Z,17.58
2022-08-12T01:53:08.294Z,17.60
2022-08-12T01:55:38.961Z,17.40
2022-08-12T01:58:26.997Z,17.90
2022-08-12T02:00:59.749Z,16.27
2022-08-12T02:04:00.210Z,18.45
2022-08-12T02:07:01.129Z,18.40
2022-08-12T02:10:00.377Z,15.90
2022-08-12T02:12:43.693Z,16.92
2022-08-12T02:15:23.629Z,16.15
2022-08-12T02:18:08.347Z,17.42
2022-08-12T02:20:51.541Z,17.80
2022-08-12T02:23:25.487Z,18.38
2022-08-12T02:25:57.052Z,17.17
2022-08-12T02:28:26.034Z,18.13
2022-08-12T02:30:56.300Z,17.50
2022-08-12T02:33:25.568Z,17.75
2022-08-12T02:35:55.506Z,17.55
2022-08-12T02:38:27.437Z,18.15
2022-08-12T02:40:57.049Z,17.98
2022-08-12T02:43:34.800Z,17.35
2022-08-12T02:46:13.733Z,16.60
2022-08-12T02:48:48.303Z,15.48
2022-08-12T02:51:20.543Z,16.88
2022-08-12T02:54:05.184Z,16.20
2022-08-12T02:56:38.026Z,15.18
2022-08-12T02:59:12.141Z,15.65
2022-08-12T03:01:47.681Z,14.43
2022-08-12T03:04:24.455Z,13.88
2022-08-12T03:07:02.278Z,15.50
2022-08-12T03:10:03.585Z,13.90
2022-08-12T03:12:26.713Z,16.02
2022-08-12T03:15:06.652Z,15.35
2022-08-12T03:17:46.322Z,14.98
2022-08-12T03:20:40.946Z,14.38
2022-08-12T03:23:11.723Z,14.25
2022-08-12T03:25:53.725Z,15.70
2022-08-12T03:28:36.872Z,36.42
2022-08-12T03:31:06.849Z,12.80
2022-08-12T03:33:38.411Z,15.80
2022-08-12T03:36:08.785Z,12.93
2022-08-12T03:38:40.536Z,13.95
2022-08-12T03:41:35.437Z,13.30
2022-08-12T03:44:25.828Z,15.27
2022-08-12T03:47:19.289Z,13.02
2022-08-12T03:50:07.204Z,13.68
2022-08-12T03:52:53.072Z,14.40
2022-08-12T03:55:39.000Z,14.30
2022-08-12T03:58:25.956Z,12.45
2022-08-12T04:00:54.407Z,12.73
2022-08-12T04:03:40.220Z,13.73
2022-08-12T04:06:11.702Z,13.23
2022-08-12T04:08:40.835Z,13.07
2022-08-12T04:11:32.039Z,14.15
2022-08-12T04:14:07.361Z,13.00
2022-08-12T04:16:36.383Z,19.23
2022-08-12T04:19:05.389Z,13.65
2022-08-12T04:21:36.479Z,14.52
2022-08-12T04:24:11.534Z,13.68
2022-08-12T04:26:40.949Z,14.97
2022-08-12T04:29:10.451Z,15.18
2022-08-12T04:31:41.567Z,12.50
2022-08-12T04:34:13.006Z,14.45
2022-08-12T04:36:44.058Z,15.02
2022-08-12T04:39:13.910Z,13.73
2022-08-12T04:41:58.329Z,12.15
2022-08-12T04:44:28.132Z,12.75
2022-08-12T04:46:56.968Z,13.07
2022-08-12T04:49:26.398Z,14.98
2022-08-12T04:51:59.530Z,14.38
2022-08-12T04:54:28.423Z,13.77
2022-08-12T04:57:03.462Z,14.95
2022-08-12T04:59:47.690Z,16.52
2022-08-12T05:02:20.543Z,13.48
2022-08-12T05:04:51.157Z,14.63
2022-08-12T05:07:21.327Z,14.57
2022-08-12T05:09:59.101Z,15.15
2022-08-12T05:12:36.620Z,15.18
2022-08-12T05:15:19.734Z,15.38
2022-08-12T05:17:55.617Z,16.00
2022-08-12T05:20:26.192Z,15.13
2022-08-12T05:23:13.089Z,16.33
2022-08-12T05:25:43.358Z,15.15
2022-08-12T05:28:13.072Z,16.92
2022-08-12T05:30:42.695Z,15.98
2022-08-12T05:33:11.722Z,15.50
2022-08-12T05:35:43.446Z,15.43
2022-08-12T05:38:32.743Z,15.02
2022-08-12T05:41:01.599Z,16.48
2022-08-12T05:43:30.015Z,16.23
2022-08-12T05:45:58.158Z,18.05
2022-08-12T05:48:26.292Z,16.58
2022-08-12T05:50:54.492Z,17.00
2022-08-12T05:53:24.133Z,15.73
2022-08-12T05:55:54.859Z,17.95
2022-08-12T05:58:23.015Z,17.10
2022-08-12T06:00:51.309Z,17.58
2022-08-12T06:03:21.422Z,16.88
2022-08-12T06:05:54.864Z,18.17
2022-08-12T06:08:26.172Z,19.45
2022-08-12T06:10:57.169Z,17.90
2022-08-12T06:13:28.242Z,18.08
2022-08-12T06:16:15.964Z,17.58
2022-08-12T06:18:44.427Z,17.40
2022-08-12T06:21:14.609Z,16.17
2022-08-12T06:23:45.983Z,16.58
2022-08-12T06:26:16.570Z,16.85
2022-08-12T06:28:45.383Z,18.55
2022-08-12T06:31:26.304Z,19.75
2022-08-12T06:34:00.983Z,20.48
2022-08-12T06:36:44.294Z,18.65
2022-08-12T06:39:15.006Z,19.52
2022-08-12T06:42:02.686Z,17.90
2022-08-12T06:44:50.443Z,19.25
2022-08-12T06:47:19.543Z,19.45
2022-08-12T06:49:49.555Z,21.98
2022-08-12T06:52:25.035Z,20.20
2022-08-12T06:54:55.729Z,22.98
2022-08-12T06:58:05.824Z,19.52
2022-08-12T07:00:21.851Z,22.02
2022-08-12T07:03:22.404Z,21.08
2022-08-12T07:05:50.827Z,21.42
2022-08-12T07:08:19.715Z,22.20
2022-08-12T07:10:53.535Z,21.45
2022-08-12T07:13:22.169Z,21.63
2022-08-12T07:15:50.405Z,24.17
2022-08-12T07:18:20.011Z,22.85
2022-08-12T07:20:52.750Z,23.75
2022-08-12T07:23:21.990Z,24.13
2022-08-12T07:25:55.181Z,22.15
2022-08-12T07:28:29.487Z,24.88
2022-08-12T07:30:58.872Z,27.58
2022-08-12T07:33:29.250Z,27.15
2022-08-12T07:35:59.476Z,28.30
2022-08-12T07:38:31.388Z,26.13
2022-08-12T07:41:05.662Z,27.80
2022-08-12T07:43:35.428Z,27.52
2022-08-12T07:46:05.838Z,27.42
2022-08-12T07:48:39.066Z,29.92
2022-08-12T07:51:08.274Z,28.67
2022-08-12T07:53:47.681Z,26.35
2022-08-12T07:56:27.572Z,27.95
2022-08-12T07:58:59.590Z,31.55
2022-08-12T08:01:28.585Z,30.08
2022-08-12T08:04:18.688Z,29.52
2022-08-12T08:06:47.980Z,33.47
2022-08-12T08:09:18.724Z,31.65
2022-08-12T08:12:06.207Z,34.67
2022-08-12T08:14:34.357Z,35.00
2022-08-12T08:17:06.881Z,38.65
2022-08-12T08:20:01.863Z,38.88
2022-08-12T08:22:40.694Z,38.67
2022-08-12T08:25:35.191Z,37.40
2022-08-12T08:28:01.960Z,40.20
2022-08-12T08:30:31.980Z,42.10
2022-08-12T08:33:00.308Z,41.83
2022-08-12T08:35:43.216Z,42.80
2022-08-12T08:38:17.605Z,43.95
2022-08-12T08:42:15.319Z,43.85
2022-08-12T08:44:10.941Z,42.10
2022-08-12T08:46:39.907Z,46.40
2022-08-12T08:49:08.521Z,45.20
2022-08-12T08:51:37.087Z,45.47
2022-08-12T08:54:06.892Z,46.22
2022-08-12T08:56:43.812Z,49.00
2022-08-12T08:59:14.652Z,48.85
2022-08-12T09:01:44.293Z,46.88
2022-08-12T09:05:07.064Z,47.03
2022-08-12T09:07:16.921Z,46.33
2022-08-12T09:10:02.728Z,42.83
2022-08-12T09:12:54.991Z,45.08
2022-08-12T09:15:35.569Z,47.65
2022-08-12T09:18:08.464Z,51.47
2022-08-12T09:20:38.726Z,50.35
2022-08-12T09:24:00.369Z,51.35
2022-08-12T09:26:04.392Z,51.13
2022-08-12T09:28:34.449Z,48.15
2022-08-12T09:32:07.437Z,49.63
2022-08-12T09:34:29.085Z,50.67
2022-08-12T09:36:59.906Z,49.75
2022-08-12T09:40:03.265Z,45.30
2022-08-12T09:42:43.499Z,48.90
2022-08-12T09:45:24.208Z,44.75
2022-08-12T09:48:20.236Z,51.72
2022-08-12T09:50:55.270Z,48.33
2022-08-12T09:53:36.036Z,50.33
2022-08-12T09:56:58.451Z,43.78
2022-08-12T09:58:57.414Z,48.53
2022-08-12T10:01:35.167Z,50.30
2022-08-12T10:04:19.917Z,49.13
2022-08-12T10:06:54.636Z,49.03
2022-08-12T10:09:28.209Z,47.97
2022-08-12T10:12:14.485Z,47.47
2022-08-12T10:14:59.259Z,47.30
2022-08-12T10:17:27.496Z,48.38
2022-08-12T10:19:59.429Z,44.45
2022-08-12T10:22:36.706Z,43.38
2022-08-12T10:26:09.967Z,45.47
2022-08-12T10:28:33.572Z,44.65
2022-08-12T10:31:01.798Z,49.30
2022-08-12T10:33:54.897Z,49.50
2022-08-12T10:36:40.018Z,50.95
2022-08-12T10:40:01.440Z,43.97
2022-08-12T10:42:16.476Z,45.45
2022-08-12T10:45:01.079Z,45.80
2022-08-12T10:48:19.037Z,46.83
2022-08-12T10:50:35.706Z,45.95
2022-08-12T10:53:19.485Z,43.55
2022-08-12T10:55:55.562Z,44.95
2022-08-12T10:58:28.373Z,48.05
2022-08-12T11:01:49.197Z,43.05
2022-08-12T11:04:23.837Z,44.78
2022-08-12T11:07:07.812Z,44.60
2022-08-12T11:09:41.504Z,43.97
2022-08-12T11:12:55.830Z,45.03
2022-08-12T11:14:59.257Z,48.95
2022-08-12T11:17:34.140Z,49.03
2022-08-12T11:20:15.266Z,47.47
2022-08-12T11:22:57.827Z,46.28
2022-08-12T11:25:56.892Z,46.25
2022-08-12T11:28:17.768Z,44.83
2022-08-12T11:31:01.871Z,45.92
2022-08-12T11:34:04.875Z,46.53
2022-08-12T11:36:21.878Z,45.97
2022-08-12T11:38:51.469Z,44.58
2022-08-12T11:41:31.380Z,42.50
2022-08-12T11:44:30.676Z,47.70
2022-08-12T11:46:51.374Z,49.03
2022-08-12T11:49:31.827Z,41.97
2022-08-12T11:52:17.380Z,45.95
2022-08-12T11:54:54.481Z,48.30
2022-08-12T11:58:15.210Z,46.55
2022-08-12T12:03:01.932Z,48.38
2022-08-12T12:05:41.632Z,46.85
2022-08-12T12:08:37.499Z,45.85
2022-08-12T12:11:09.419Z,47.95
2022-08-12T12:14:06.952Z,48.70
2022-08-12T12:16:27.316Z,43.92
2022-08-12T12:18:58.135Z,44.38
2022-08-12T12:21:47.272Z,46.13
2022-08-12T12:24:14.452Z,42.65
2022-08-12T12:27:00.952Z,46.22
2022-08-12T12:30:18.299Z,43.35
2022-08-12T12:32:29.256Z,45.75
2022-08-12T12:35:18.351Z,44.55
2022-08-12T12:38:05.432Z,46.17
2022-08-12T12:40:43.794Z,41.70
2022-08-12T12:43:13.886Z,47.58
2022-08-12T12:45:46.567Z,46.65
2022-08-12T12:48:16.081Z,46.13
2022-08-12T12:50:51.481Z,45.47
2022-08-12T12:54:06.982Z,43.95
2022-08-12T12:56:15.663Z,46.67
2022-08-12T12:58:44.301Z,47.03
2022-08-12T13:01:25.351Z,44.92
2022-08-12T13:04:01.779Z,44.97
2022-08-12T13:06:32.379Z,44.33
2022-08-12T13:09:03.811Z,42.83
2022-08-12T13:11:42.004Z,47.15
2022-08-12T13:14:28.607Z,44.78
2022-08-12T13:17:02.440Z,45.75
2022-08-12T13:19:38.887Z,46.88
2022-08-12T13:22:20.389Z,44.88
2022-08-12T13:24:54.487Z,47.47
2022-08-12T13:27:35.793Z,44.97
2022-08-12T13:30:06.750Z,47.20
2022-08-12T13:32:37.284Z,44.30
2022-08-12T13:35:20.296Z,44.53
2022-08-12T13:37:56.139Z,40.03
2022-08-12T13:40:26.570Z,45.45
2022-08-12T13:42:57.908Z,44.10
2022-08-12T13:45:26.553Z,46.45
2022-08-12T13:48:00.083Z,49.55
2022-08-12T13:50:32.500Z,45.85
2022-08-12T13:53:23.163Z,45.47
2022-08-12T13:55:59.823Z,45.13
2022-08-12T13:58:34.931Z,48.55
2022-08-12T14:01:05.717Z,49.53
2022-08-12T14:03:51.430Z,44.97
2022-08-12T14:06:21.454Z,47.30
2022-08-12T14:08:54.795Z,44.35
2022-08-12T14:11:25.079Z,50.90
2022-08-12T14:14:03.976Z,47.95
2022-08-12T14:16:48.548Z,46.50
2022-08-12T14:19:22.250Z,48.28
2022-08-12T14:21:59.712Z,44.33
2022-08-12T14:24:31.534Z,44.30
2022-08-12T14:27:02.054Z,48.58
2022-08-12T14:29:38.137Z,45.83
2022-08-12T14:32:19.488Z,49.38
2022-08-12T14:34:51.399Z,47.08
2022-08-12T14:37:55.280Z,44.67
2022-08-12T14:40:09.765Z,46.92
2022-08-12T14:42:38.394Z,44.58
2022-08-12T14:45:07.997Z,47.88
2022-08-12T14:47:51.349Z,43.00
2022-08-12T14:50:58.350Z,46.20
2022-08-12T14:59:23.257Z,47.53
2022-08-12T15:01:52.409Z,49.80
2022-08-12T15:04:29.120Z,46.90
2022-08-12T15:07:00.264Z,48.63
2022-08-12T15:09:29.540Z,44.47
2022-08-12T15:12:03.361Z,42.60
2022-08-12T15:14:32.481Z,46.72
2022-08-12T15:17:07.088Z,52.35
2022-08-12T15:20:33.261Z,47.35
2022-08-12T15:22:38.483Z,44.90
2022-08-12T15:25:09.019Z,41.08
2022-08-12T15:28:05.498Z,49.22
2022-08-12T15:30:35.043Z,41.15
2022-08-12T15:33:12.879Z,43.72
2022-08-12T15:35:53.259Z,48.50
2022-08-12T15:38:27.113Z,41.80
2022-08-12T15:40:59.032Z,47.05
2022-08-12T15:43:51.458Z,48.08
2022-08-12T15:46:18.126Z,50.42
2022-08-12T15:48:49.567Z,50.20
2022-08-12T15:51:58.889Z,47.92
2022-08-12T15:54:34.698Z,49.28
2022-08-12T15:57:07.975Z,54.78
2022-08-12T16:00:03.740Z,62.10
2022-08-12T16:02:29.331Z,60.22
2022-08-12T16:04:58.359Z,58.28
2022-08-12T16:07:32.864Z,55.70
2022-08-12T16:10:09.087Z,56.50
2022-08-12T16:12:43.129Z,53.63
2022-08-12T16:15:13.419Z,61.47
2022-08-12T16:18:18.805Z,52.83
2022-08-12T16:20:33.568Z,50.47
2022-08-12T16:23:35.729Z,51.28
2022-08-12T16:26:05.138Z,51.38
2022-08-12T16:28:34.781Z,49.33
2022-08-12T16:31:03.629Z,48.33
2022-08-12T16:33:59.514Z,46.53
2022-08-12T16:36:25.979Z,46.33
2022-08-12T16:38:54.442Z,43.70
2022-08-12T16:41:25.632Z,47.95
2022-08-12T16:43:56.668Z,46.90
2022-08-12T16:46:31.934Z,45.75
2022-08-12T16:49:04.287Z,44.95
2022-08-12T16:51:45.939Z,50.58
2022-08-12T16:54:16.622Z,46.55
2022-08-12T16:56:51.166Z,46.15
2022-08-12T16:59:26.409Z,47.60
2022-08-12T17:02:18.035Z,47.88
2022-08-12T17:05:04.674Z,40.35
2022-08-12T17:07:38.003Z,40.65
2022-08-12T17:10:08.252Z,45.15
2022-08-12T17:12:38.383Z,45.78
2022-08-12T17:15:50.346Z,48.00
2022-08-12T17:18:38.842Z,46.13
2022-08-12T17:20:48.272Z,44.95
2022-08-12T17:23:19.409Z,44.83
2022-08-12T17:25:49.275Z,47.13
2022-08-12T17:28:21.215Z,39.72
2022-08-12T17:30:59.496Z,48.03
2022-08-12T17:33:33.582Z,42.08
2022-08-12T17:36:05.866Z,44.38
2022-08-12T17:38:35.716Z,38.30
2022-08-12T17:41:22.774Z,46.05
2022-08-12T17:43:59.038Z,46.97
2022-08-12T17:46:33.752Z,41.25
2022-08-12T17:49:06.956Z,40.08
2022-08-12T17:52:02.849Z,42.22
2022-08-12T17:54:32.825Z,42.72
2022-08-12T17:57:03.032Z,44.33
2022-08-12T17:59:48.490Z,42.03
2022-08-12T18:02:22.534Z,45.20
2022-08-12T18:05:05.731Z,40.80
2022-08-12T18:07:39.501Z,38.85
2022-08-12T18:10:08.801Z,42.90
2022-08-12T18:12:42.777Z,41.83
2022-08-12T18:15:26.539Z,42.83
2022-08-12T18:18:17.455Z,41.80
2022-08-12T18:20:47.958Z,38.15
2022-08-12T18:23:23.588Z,37.33
2022-08-12T18:26:15.454Z,37.67
2022-08-12T18:28:48.147Z,40.05
2022-08-12T18:31:23.278Z,41.08
2022-08-12T18:33:52.802Z,39.65
2022-08-12T18:36:22.655Z,37.88
2022-08-12T18:38:56.119Z,37.83
2022-08-12T18:41:34.181Z,34.05
2022-08-12T18:44:09.419Z,35.35
2022-08-12T18:46:53.736Z,36.42
2022-08-12T18:49:29.686Z,38.58
2022-08-12T18:52:04.356Z,37.55
2022-08-12T18:54:35.843Z,39.30
2022-08-12T18:57:16.452Z,38.22
2022-08-12T18:59:59.882Z,37.20
2022-08-12T19:02:39.846Z,36.30
2022-08-12T19:05:11.917Z,36.80
2022-08-12T19:07:49.455Z,36.60
2022-08-12T19:10:27.087Z,33.90
2022-08-12T19:13:21.164Z,40.17
2022-08-12T19:15:54.514Z,35.03
2022-08-12T19:18:30.079Z,36.65
2022-08-12T19:21:11.687Z,32.80
2022-08-12T19:23:44.050Z,32.10
2022-08-12T19:26:13.166Z,33.50
2022-08-12T19:28:42.727Z,31.30
2022-08-12T19:31:56.502Z,27.13
2022-08-12T19:37:22.944Z,31.67
2022-08-12T19:40:08.961Z,28.48
2022-08-12T19:42:42.949Z,31.95
2022-08-12T19:45:14.004Z,27.25
2022-08-12T19:47:46.540Z,28.30
2022-08-12T19:50:19.871Z,28.67
2022-08-12T19:52:51.163Z,29.45
2022-08-12T19:55:21.813Z,27.98
2022-08-12T19:58:01.518Z,28.60
2022-08-12T20:00:34.955Z,29.20
2022-08-12T20:03:05.369Z,28.70
2022-08-12T20:06:05.170Z,27.23
2022-08-12T20:08:31.330Z,27.35
2022-08-12T20:12:11.511Z,27.17
2022-08-12T20:14:00.373Z,25.90
2022-08-12T20:19:52.187Z,24.60
2022-08-12T20:22:24.678Z,24.88
2022-08-12T20:25:01.282Z,26.52
2022-08-12T20:28:03.255Z,25.17
2022-08-12T20:30:52.667Z,29.08
2022-08-12T20:33:18.990Z,25.52
2022-08-12T20:36:13.547Z,24.80
2022-08-12T20:38:46.586Z,24.80
2022-08-12T20:41:16.702Z,28.73
2022-08-12T20:43:49.303Z,26.20
2022-08-12T20:46:19.126Z,26.17
2022-08-12T20:48:54.934Z,27.33
2022-08-12T20:51:27.548Z,25.52
2022-08-12T20:53:59.666Z,24.15
2022-08-12T20:56:33.085Z,24.55
2022-08-12T20:59:04.950Z,24.08
2022-08-12T21:01:45.936Z,25.85
2022-08-12T21:04:33.845Z,23.67
2022-08-12T21:07:04.717Z,24.88
2022-08-12T21:09:42.699Z,23.88
2022-08-12T21:12:31.014Z,29.02
2022-08-12T21:15:24.229Z,23.67
2022-08-12T21:18:10.735Z,27.30
2022-08-12T21:20:49.717Z,25.73
2022-08-12T21:23:21.371Z,24.75
2022-08-12T21:25:52.581Z,21.60
2022-08-12T21:28:30.693Z,26.02
2022-08-12T21:32:37.616Z,25.30
2022-08-12T21:34:06.443Z,24.70
2022-08-12T21:36:39.728Z,22.65
2022-08-12T21:39:18.623Z,22.58
2022-08-12T21:41:52.836Z,23.48
2022-08-12T21:44:24.495Z,24.63
2022-08-12T21:47:19.982Z,20.98
2022-08-12T21:49:55.292Z,25.05
2022-08-12T21:52:34.690Z,24.92
2022-08-12T21:55:03.996Z,21.60
2022-08-12T21:57:50.705Z,23.25
2022-08-12T22:00:32.175Z,21.70
2022-08-12T22:03:25.014Z,24.23
2022-08-12T22:06:31.500Z,21.92
2022-08-12T22:09:16.454Z,18.50
2022-08-12T22:11:49.373Z,19.95
2022-08-12T22:14:30.008Z,17.48
2022-08-12T22:17:01.623Z,19.02
2022-08-12T22:19:35.178Z,16.73
2022-08-12T22:22:05.467Z,18.15
2022-08-12T22:24:33.950Z,18.92
2022-08-12T22:27:22.935Z,19.55
2022-08-12T22:30:16.707Z,16.05
2022-08-12T22:32:49.808Z,18.77
2022-08-12T22:35:56.080Z,19.05
2022-08-12T22:38:26.778Z,19.90
2022-08-12T22:41:01.005Z,19.13
2022-08-12T22:43:59.878Z,18.55
2022-08-12T22:46:51.855Z,18.48
2022-08-12T22:49:37.291Z,16.52
2022-08-12T22:52:12.761Z,16.92
2022-08-12T22:55:00.229Z,16.33
2022-08-12T22:57:49.024Z,14.27
2022-08-12T23:00:26.994Z,15.10
2022-08-12T23:03:02.968Z,15.75
2022-08-12T23:05:36.811Z,16.27
2022-08-12T23:08:22.733Z,17.95
2022-08-12T23:10:51.800Z,17.10
2022-08-12T23:13:42.916Z,18.80
2022-08-12T23:16:28.550Z,17.27
2022-08-12T23:19:09.609Z,16.52
2022-08-12T23:22:05.988Z,15.50
2022-08-12T23:24:30.309Z,18.23
2022-08-12T23:27:16.865Z,18.50
2022-08-12T23:30:17.509Z,19.00
2022-08-12T23:32:37.314Z,16.55
2022-08-12T23:35:08.569Z,18.42
2022-08-12T23:37:47.746Z,19.52
2022-08-12T23:40:22.453Z,16.75
2022-08-12T23:42:54.953Z,19.85
2022-08-12T23:45:31.500Z,18.30
2022-08-12T23:48:03.016Z,18.45
2022-08-12T23:50:33.426Z,16.50
2022-08-12T23:53:05.665Z,18.38
2022-08-12T23:55:40.434Z,16.00
2022-08-12T23:58:21.772Z,18.42
